createdAt,value
2022-11-17T00:00:24.395Z,29.98
2022-11-17T00:00:55.945Z,31.35
2022-11-17T00:01:27.482Z,31.63
2022-11-17T00:01:59.062Z,30.23
2022-11-17T00:02:30.633Z,32.25
2022-11-17T00:03:02.296Z,33.15
2022-11-17T00:03:34.357Z,27.58
2022-11-17T00:04:06.167Z,30.60
2022-11-17T00:04:37.684Z,31.83
2022-11-17T00:05:09.354Z,29.77
2022-11-17T00:05:40.877Z,31.38
2022-11-17T00:06:12.615Z,30.15
2022-11-17T00:06:44.742Z,31.70
2022-11-17T00:07:16.332Z,31.27
2022-11-17T00:07:49.093Z,29.98
2022-11-17T00:08:20.642Z,31.83
2022-11-17T00:08:53.040Z,31.10
2022-11-17T00:09:25.257Z,30.92
2022-11-17T00:09:56.785Z,32.20
2022-11-17T00:10:28.339Z,31.63
2022-11-17T00:11:03.767Z,29.42
2022-11-17T00:11:55.243Z,29.90
2022-11-17T00:12:45.328Z,29.92
2022-11-17T00:13:35.341Z,28.50
2022-11-17T00:14:30.418Z,31.10
2022-11-17T00:15:02.030Z,29.42
2022-11-17T00:15:33.665Z,33.63
2022-11-17T00:16:05.473Z,31.15
2022-11-17T00:16:37.018Z,31.50
2022-11-17T00:17:11.294Z,32.47
2022-11-17T00:17:42.838Z,34.17
2022-11-17T00:18:32.861Z,30.73
2022-11-17T00:19:23.346Z,33.90
2022-11-17T00:20:13.601Z,29.67
2022-11-17T00:21:03.318Z,33.42
2022-11-17T00:21:35.011Z,31.63
2022-11-17T00:22:06.562Z,32.38
2022-11-17T00:22:38.093Z,30.60
2022-11-17T00:23:09.615Z,32.45
2022-11-17T00:23:47.348Z,31.23
2022-11-17T00:24:19.192Z,34.22
2022-11-17T00:24:51.261Z,32.67
2022-11-17T00:25:22.884Z,33.38
2022-11-17T00:25:54.399Z,33.25
2022-11-17T00:26:28.676Z,32.50
2022-11-17T00:27:03.253Z,33.58
2022-11-17T00:27:34.788Z,29.27
2022-11-17T00:28:06.305Z,32.00
2022-11-17T00:28:37.926Z,33.03
2022-11-17T00:29:09.477Z,36.03
2022-11-17T00:29:41.033Z,34.80
2022-11-17T00:30:33.053Z,33.20
2022-11-17T00:31:23.322Z,31.13
2022-11-17T00:32:13.490Z,32.28
2022-11-17T00:33:03.274Z,36.08
2022-11-17T00:33:53.267Z,34.20
2022-11-17T00:34:24.796Z,32.70
2022-11-17T00:34:56.401Z,33.22
2022-11-17T00:35:27.930Z,33.65
2022-11-17T00:35:59.557Z,32.58
2022-11-17T00:36:35.740Z,31.40
2022-11-17T00:37:08.601Z,32.22
2022-11-17T00:37:59.658Z,31.25
2022-11-17T00:38:31.176Z,31.08
2022-11-17T00:39:03.869Z,34.97
2022-11-17T00:39:35.823Z,33.25
2022-11-17T00:40:07.700Z,31.90
2022-11-17T00:40:39.329Z,32.65
2022-11-17T00:41:10.855Z,33.17
2022-11-17T00:41:42.795Z,32.05
2022-11-17T00:42:14.297Z,35.45
2022-11-17T00:42:45.837Z,33.78
2022-11-17T00:43:17.398Z,30.65
2022-11-17T00:43:48.942Z,34.80
2022-11-17T00:44:20.512Z,37.10
2022-11-17T00:44:52.042Z,35.80
2022-11-17T00:45:23.578Z,33.20
2022-11-17T00:45:55.093Z,31.27
2022-11-17T00:46:26.962Z,33.83
2022-11-17T00:46:58.528Z,35.60
2022-11-17T00:47:30.056Z,36.90
2022-11-17T00:48:01.585Z,34.40
2022-11-17T00:48:33.113Z,36.30
2022-11-17T00:49:05.930Z,33.50
2022-11-17T00:49:37.485Z,32.85
2022-11-17T00:50:09.766Z,32.60
2022-11-17T00:50:41.284Z,33.30
2022-11-17T00:51:12.810Z,34.55
2022-11-17T00:51:44.341Z,34.78
2022-11-17T00:52:15.885Z,35.85
2022-11-17T00:52:47.438Z,38.97
2022-11-17T00:53:18.966Z,35.15
2022-11-17T00:53:50.566Z,38.03
2022-11-17T00:54:22.875Z,33.70
2022-11-17T00:54:54.417Z,37.38
2022-11-17T00:55:26.073Z,37.13
2022-11-17T00:55:57.644Z,35.83
2022-11-17T00:56:29.450Z,36.42
2022-11-17T00:57:01.024Z,35.63
2022-11-17T00:57:32.578Z,36.95
2022-11-17T00:58:04.133Z,37.83
2022-11-17T00:58:36.476Z,32.67
2022-11-17T00:59:08.088Z,33.63
2022-11-17T00:59:39.593Z,32.15
2022-11-17T01:00:11.559Z,36.05
2022-11-17T01:00:43.071Z,37.00
2022-11-17T01:01:14.839Z,36.33
2022-11-17T01:01:46.636Z,34.55
2022-11-17T01:02:18.309Z,34.05
2022-11-17T01:02:49.902Z,32.22
2022-11-17T01:03:21.468Z,33.85
2022-11-17T01:04:03.117Z,38.20
2022-11-17T01:04:34.806Z,32.70
2022-11-17T01:05:06.547Z,33.60
2022-11-17T01:05:38.163Z,36.88
2022-11-17T01:06:15.318Z,34.80
2022-11-17T01:06:49.065Z,37.63
2022-11-17T01:07:22.819Z,35.10
2022-11-17T01:07:54.426Z,35.95
2022-11-17T01:08:26.008Z,35.10
2022-11-17T01:09:05.866Z,35.00
2022-11-17T01:09:37.390Z,35.08
2022-11-17T01:10:09.400Z,35.80
2022-11-17T01:10:40.947Z,35.83
2022-11-17T01:11:15.474Z,36.63
2022-11-17T01:11:48.600Z,36.40
2022-11-17T01:12:20.134Z,37.58
2022-11-17T01:12:51.670Z,34.72
2022-11-17T01:13:23.209Z,34.15
2022-11-17T01:13:57.875Z,33.67
2022-11-17T01:14:30.957Z,33.50
2022-11-17T01:15:02.531Z,34.30
2022-11-17T01:15:34.694Z,35.05
2022-11-17T01:16:12.615Z,32.85
2022-11-17T01:16:44.636Z,33.70
2022-11-17T01:17:16.173Z,35.85
2022-11-17T01:17:47.859Z,35.50
2022-11-17T01:18:19.381Z,34.22
2022-11-17T01:18:51.951Z,35.30
2022-11-17T01:19:24.321Z,34.47
2022-11-17T01:19:55.866Z,31.83
2022-11-17T01:20:27.415Z,31.75
2022-11-17T01:21:09.151Z,37.30
2022-11-17T01:21:40.812Z,32.08
2022-11-17T01:22:13.071Z,33.33
2022-11-17T01:22:44.589Z,34.67
2022-11-17T01:23:16.272Z,34.50
2022-11-17T01:23:49.442Z,33.47
2022-11-17T01:24:21.061Z,32.08
2022-11-17T01:24:52.597Z,34.92
2022-11-17T01:25:24.126Z,33.28
2022-11-17T01:26:01.634Z,36.63
2022-11-17T01:26:35.295Z,32.67
2022-11-17T01:27:06.845Z,33.10
2022-11-17T01:27:38.371Z,33.75
2022-11-17T01:28:09.905Z,34.22
2022-11-17T01:28:42.257Z,38.55
2022-11-17T01:29:17.105Z,37.58
2022-11-17T01:29:48.729Z,35.00
2022-11-17T01:30:20.341Z,35.58
2022-11-17T01:30:59.530Z,34.80
2022-11-17T01:31:34.046Z,36.00
2022-11-17T01:32:05.585Z,31.90
2022-11-17T01:32:37.155Z,32.92
2022-11-17T01:33:08.685Z,36.58
2022-11-17T01:33:40.583Z,36.55
2022-11-17T01:34:12.584Z,35.20
2022-11-17T01:34:44.212Z,34.70
2022-11-17T01:35:15.827Z,31.15
2022-11-17T01:35:47.344Z,35.63
2022-11-17T01:36:24.760Z,36.85
2022-11-17T01:37:14.537Z,33.00
2022-11-17T01:37:46.098Z,30.27
2022-11-17T01:38:17.609Z,35.55
2022-11-17T01:38:49.533Z,34.58
2022-11-17T01:39:21.340Z,34.47
2022-11-17T01:39:52.881Z,35.17
2022-11-17T01:40:24.435Z,33.80
2022-11-17T01:40:58.490Z,33.65
2022-11-17T01:41:30.049Z,35.03
2022-11-17T01:42:13.109Z,35.75
2022-11-17T01:42:44.628Z,35.50
2022-11-17T01:43:16.193Z,34.57
2022-11-17T01:43:48.901Z,34.25
2022-11-17T01:44:44.442Z,34.25
2022-11-17T01:45:20.383Z,32.75
2022-11-17T01:45:51.933Z,33.90
2022-11-17T01:46:26.161Z,33.33
2022-11-17T01:47:00.879Z,34.42
2022-11-17T01:47:38.770Z,37.90
2022-11-17T01:48:13.552Z,34.53
2022-11-17T01:48:46.131Z,37.00
2022-11-17T01:49:28.635Z,37.97
2022-11-17T01:50:26.204Z,34.97
2022-11-17T01:50:58.446Z,34.53
2022-11-17T01:51:32.921Z,38.70
2022-11-17T01:52:07.825Z,36.85
2022-11-17T01:52:41.032Z,35.08
2022-11-17T01:53:17.411Z,33.72
2022-11-17T01:53:51.340Z,36.63
2022-11-17T01:54:28.894Z,39.17
2022-11-17T01:55:01.800Z,35.70
2022-11-17T01:55:38.449Z,33.13
2022-11-17T01:56:14.781Z,36.30
2022-11-17T01:56:49.589Z,36.55
2022-11-17T01:57:26.695Z,36.35
2022-11-17T01:58:07.589Z,33.67
2022-11-17T01:58:43.101Z,35.97
2022-11-17T01:59:31.079Z,38.53
2022-11-17T02:00:07.182Z,37.75
2022-11-17T02:01:56.688Z,37.55
2022-11-17T02:02:28.777Z,36.22
2022-11-17T02:03:00.849Z,38.38
2022-11-17T02:03:35.535Z,36.63
2022-11-17T02:04:07.333Z,40.55
2022-11-17T02:04:49.689Z,37.15
2022-11-17T02:05:39.584Z,37.92
2022-11-17T02:06:20.832Z,36.30
2022-11-17T02:06:59.672Z,37.70
2022-11-17T02:07:37.762Z,37.47
2022-11-17T02:08:11.101Z,39.60
2022-11-17T02:08:45.835Z,37.90
2022-11-17T02:09:17.598Z,38.60
2022-11-17T02:09:49.677Z,38.70
2022-11-17T02:10:21.201Z,40.67
2022-11-17T02:10:53.816Z,41.85
2022-11-17T02:11:26.008Z,38.40
2022-11-17T02:11:59.093Z,36.55
2022-11-17T02:12:32.695Z,36.58
2022-11-17T02:13:05.466Z,37.28
2022-11-17T02:13:38.949Z,35.92
2022-11-17T02:14:11.105Z,38.47
2022-11-17T02:14:42.787Z,34.33
2022-11-17T02:15:14.462Z,36.00
2022-11-17T02:15:45.992Z,38.17
2022-11-17T02:16:18.003Z,39.22
2022-11-17T02:16:49.579Z,36.35
2022-11-17T02:17:23.464Z,37.45
2022-11-17T02:17:56.216Z,39.20
2022-11-17T02:18:27.781Z,37.55
2022-11-17T02:18:59.432Z,37.83
2022-11-17T02:19:38.836Z,36.67
2022-11-17T02:20:10.649Z,37.22
2022-11-17T02:20:53.540Z,38.05
2022-11-17T02:21:46.748Z,36.25
2022-11-17T02:23:04.918Z,36.55
2022-11-17T02:23:51.427Z,37.53
2022-11-17T02:24:31.296Z,33.80
2022-11-17T02:25:27.108Z,36.88
2022-11-17T02:26:15.134Z,36.30
2022-11-17T02:26:49.248Z,36.53
2022-11-17T02:27:48.869Z,40.03
2022-11-17T02:28:23.794Z,34.33
2022-11-17T02:29:09.410Z,36.92
2022-11-17T02:30:10.317Z,35.72
2022-11-17T02:30:58.063Z,35.03
2022-11-17T02:31:42.618Z,34.78
2022-11-17T02:32:24.657Z,37.17
2022-11-17T02:33:15.661Z,36.92
2022-11-17T02:33:59.347Z,35.78
2022-11-17T02:34:51.973Z,38.28
2022-11-17T02:35:26.887Z,35.45
2022-11-17T02:36:04.296Z,38.45
2022-11-17T02:36:46.470Z,36.38
2022-11-17T02:37:39.523Z,34.40
2022-11-17T02:38:23.605Z,37.63
2022-11-17T02:39:14.397Z,36.10
2022-11-17T02:40:10.548Z,38.65
2022-11-17T02:40:48.444Z,38.38
2022-11-17T02:41:24.001Z,34.88
2022-11-17T02:42:04.317Z,42.35
2022-11-17T02:43:03.966Z,38.30
2022-11-17T02:44:03.261Z,34.55
2022-11-17T02:44:42.305Z,35.80
2022-11-17T02:45:22.473Z,33.38
2022-11-17T02:46:14.605Z,37.95
2022-11-17T02:47:10.873Z,35.67
2022-11-17T02:47:44.713Z,34.38
2022-11-17T02:48:28.405Z,35.88
2022-11-17T02:49:06.085Z,36.53
2022-11-17T02:49:41.209Z,34.17
2022-11-17T02:50:14.021Z,37.53
2022-11-17T02:50:47.782Z,34.58
2022-11-17T02:51:21.688Z,32.70
2022-11-17T02:51:56.315Z,35.35
2022-11-17T02:52:30.586Z,35.55
2022-11-17T02:53:03.390Z,37.38
2022-11-17T02:53:36.175Z,35.85
2022-11-17T02:54:09.054Z,35.78
2022-11-17T02:54:40.581Z,37.88
2022-11-17T02:55:12.346Z,36.08
2022-11-17T02:55:50.446Z,37.05
2022-11-17T02:56:22.501Z,37.60
2022-11-17T02:56:54.036Z,37.42
2022-11-17T02:57:33.534Z,35.33
2022-11-17T02:58:11.930Z,34.50
2022-11-17T02:58:43.451Z,34.40
2022-11-17T02:59:18.148Z,35.22
2022-11-17T02:59:50.017Z,35.13
2022-11-17T03:00:21.613Z,34.53
2022-11-17T03:01:22.378Z,38.35
2022-11-17T03:02:14.063Z,35.70
2022-11-17T03:03:13.605Z,31.75
2022-11-17T03:04:11.028Z,35.20
2022-11-17T03:05:19.170Z,34.67
2022-11-17T03:05:50.645Z,34.88
2022-11-17T03:06:45.793Z,38.10
2022-11-17T03:07:33.009Z,33.10
2022-11-17T03:08:33.294Z,35.00
2022-11-17T03:09:32.505Z,34.97
2022-11-17T03:10:12.018Z,33.25
2022-11-17T03:11:00.144Z,33.60
2022-11-17T03:12:13.565Z,34.83
2022-11-17T03:12:59.441Z,33.30
2022-11-17T03:13:45.858Z,33.47
2022-11-17T03:14:40.394Z,34.60
2022-11-17T03:15:36.632Z,32.83
2022-11-17T03:16:29.685Z,35.75
2022-11-17T03:17:13.371Z,29.83
2022-11-17T03:17:51.086Z,33.85
2022-11-17T03:18:50.777Z,36.88
2022-11-17T03:19:57.846Z,31.83
2022-11-17T03:20:46.242Z,31.52
2022-11-17T03:21:28.846Z,34.47
2022-11-17T03:22:12.908Z,33.05
2022-11-17T03:23:13.806Z,32.65
2022-11-17T03:24:09.394Z,31.23
2022-11-17T03:24:52.361Z,34.92
2022-11-17T03:25:27.157Z,33.55
2022-11-17T03:25:59.814Z,33.03
2022-11-17T03:26:35.850Z,35.05
2022-11-17T03:27:16.879Z,33.83
2022-11-17T03:27:53.563Z,34.95
2022-11-17T03:28:29.283Z,32.25
2022-11-17T03:29:02.636Z,34.45
2022-11-17T03:29:36.780Z,33.42
2022-11-17T03:30:10.297Z,32.70
2022-11-17T03:30:44.025Z,33.53
2022-11-17T03:31:17.728Z,33.38
2022-11-17T03:31:53.465Z,35.63
2022-11-17T03:32:27.892Z,36.17
2022-11-17T03:33:05.238Z,37.58
2022-11-17T03:33:39.207Z,34.15
2022-11-17T03:34:15.625Z,33.70
2022-11-17T03:34:55.658Z,32.75
2022-11-17T03:35:31.963Z,33.42
2022-11-17T03:36:35.634Z,36.10
2022-11-17T03:37:09.370Z,34.00
2022-11-17T03:37:45.794Z,31.60
2022-11-17T03:38:20.693Z,33.33
2022-11-17T03:39:02.555Z,34.33
2022-11-17T03:39:37.654Z,32.58
2022-11-17T03:40:12.687Z,32.03
2022-11-17T03:40:47.503Z,29.10
2022-11-17T03:41:20.939Z,30.42
2022-11-17T03:41:59.801Z,31.75
2022-11-17T03:42:34.594Z,33.33
2022-11-17T03:43:09.491Z,32.63
2022-11-17T03:43:43.198Z,32.03
2022-11-17T03:44:16.302Z,32.92
2022-11-17T03:44:52.881Z,32.55
2022-11-17T03:45:30.375Z,29.13
2022-11-17T03:46:10.053Z,31.75
2022-11-17T03:46:44.459Z,31.55
2022-11-17T03:47:18.794Z,31.70
2022-11-17T03:48:00.606Z,30.75
2022-11-17T03:48:37.998Z,31.17
2022-11-17T03:49:35.518Z,31.95
2022-11-17T03:50:15.943Z,29.45
2022-11-17T03:50:51.970Z,31.05
2022-11-17T03:51:27.240Z,30.20
2022-11-17T03:51:58.850Z,33.08
2022-11-17T03:52:31.193Z,32.33
2022-11-17T03:53:04.208Z,30.58
2022-11-17T03:53:36.926Z,31.10
2022-11-17T03:54:09.567Z,31.27
2022-11-17T03:54:41.641Z,31.27
2022-11-17T03:55:14.089Z,34.22
2022-11-17T03:55:54.249Z,31.95
2022-11-17T03:56:38.226Z,30.65
2022-11-17T03:57:29.929Z,32.35
2022-11-17T03:58:07.556Z,33.95
2022-11-17T03:58:46.614Z,30.58
2022-11-17T03:59:33.849Z,30.30
2022-11-17T04:00:11.015Z,30.25
2022-11-17T04:00:43.349Z,29.55
2022-11-17T04:01:15.570Z,31.35
2022-11-17T04:01:47.311Z,32.65
2022-11-17T04:02:20.659Z,32.92
2022-11-17T04:02:58.642Z,31.67
2022-11-17T04:03:32.634Z,28.30
2022-11-17T04:04:04.561Z,31.58
2022-11-17T04:04:54.877Z,28.08
2022-11-17T04:05:27.138Z,30.88
2022-11-17T04:05:58.682Z,33.88
2022-11-17T04:06:30.243Z,31.38
2022-11-17T04:07:01.839Z,30.33
2022-11-17T04:07:42.562Z,31.52
2022-11-17T04:08:14.227Z,30.60
2022-11-17T04:08:45.811Z,30.30
2022-11-17T04:09:22.880Z,31.80
2022-11-17T04:09:55.812Z,30.80
2022-11-17T04:10:27.438Z,32.75
2022-11-17T04:11:17.778Z,30.33
2022-11-17T04:12:07.962Z,32.03
2022-11-17T04:12:57.986Z,31.20
2022-11-17T04:13:48.140Z,30.33
2022-11-17T04:14:38.193Z,26.55
2022-11-17T04:15:29.450Z,30.67
2022-11-17T04:16:01.647Z,31.90
2022-11-17T04:16:33.193Z,32.97
2022-11-17T04:17:04.751Z,30.85
2022-11-17T04:17:36.271Z,30.77
2022-11-17T04:18:07.851Z,33.47
2022-11-17T04:18:39.376Z,31.10
2022-11-17T04:19:11.050Z,31.02
2022-11-17T04:19:42.585Z,28.95
2022-11-17T04:20:14.442Z,31.00
2022-11-17T04:20:49.234Z,32.08
2022-11-17T04:21:20.806Z,32.42
2022-11-17T04:21:52.330Z,28.45
2022-11-17T04:22:23.880Z,31.65
2022-11-17T04:23:07.459Z,29.13
2022-11-17T04:23:39.053Z,32.88
2022-11-17T04:24:10.654Z,32.72
2022-11-17T04:24:42.180Z,29.88
2022-11-17T04:25:33.727Z,32.90
2022-11-17T04:26:23.471Z,33.17
2022-11-17T04:27:14.014Z,31.25
2022-11-17T04:28:03.961Z,33.13
2022-11-17T04:28:38.872Z,32.78
2022-11-17T04:29:10.408Z,32.63
2022-11-17T04:29:41.933Z,31.90
2022-11-17T04:30:13.775Z,30.05
2022-11-17T04:30:45.295Z,32.10
2022-11-17T04:31:25.934Z,31.60
2022-11-17T04:31:57.495Z,34.22
2022-11-17T04:32:29.025Z,32.42
2022-11-17T04:33:00.536Z,33.88
2022-11-17T04:33:32.948Z,28.40
2022-11-17T04:34:05.745Z,35.75
2022-11-17T04:34:40.837Z,32.38
2022-11-17T04:35:12.381Z,33.72
2022-11-17T04:35:50.297Z,30.38
2022-11-17T04:36:24.508Z,30.90
2022-11-17T04:36:56.093Z,32.78
2022-11-17T04:37:27.621Z,29.58
2022-11-17T04:37:59.133Z,31.88
2022-11-17T04:38:30.709Z,31.60
2022-11-17T04:39:03.087Z,30.83
2022-11-17T04:39:37.654Z,33.70
2022-11-17T04:40:09.897Z,31.55
2022-11-17T04:41:01.368Z,33.05
2022-11-17T04:41:53.771Z,29.50
2022-11-17T04:42:25.365Z,33.75
2022-11-17T04:42:56.874Z,28.45
2022-11-17T04:43:28.892Z,31.73
2022-11-17T04:44:01.498Z,31.00
2022-11-17T04:44:33.128Z,32.28
2022-11-17T04:45:05.074Z,32.95
2022-11-17T04:45:36.582Z,32.47
2022-11-17T04:46:08.101Z,32.95
2022-11-17T04:46:41.094Z,29.95
2022-11-17T04:47:12.604Z,33.22
2022-11-17T04:47:44.133Z,29.33
2022-11-17T04:48:15.641Z,30.25
2022-11-17T04:48:47.769Z,31.00
2022-11-17T04:49:20.632Z,27.95
2022-11-17T04:49:52.152Z,29.00
2022-11-17T04:50:23.706Z,31.08
2022-11-17T04:50:56.845Z,29.13
2022-11-17T04:51:29.312Z,29.20
2022-11-17T04:52:01.335Z,30.88
2022-11-17T04:52:32.897Z,29.83
2022-11-17T04:53:04.434Z,31.17
2022-11-17T04:53:36.293Z,30.58
2022-11-17T04:54:09.837Z,29.08
2022-11-17T04:54:41.374Z,31.52
2022-11-17T04:55:13.065Z,27.90
2022-11-17T04:55:44.601Z,29.52
2022-11-17T04:56:16.622Z,31.52
2022-11-17T04:56:48.353Z,27.73
2022-11-17T04:57:19.900Z,30.88
2022-11-17T04:57:51.418Z,28.45
2022-11-17T04:58:22.933Z,30.05
2022-11-17T04:58:54.731Z,31.85
2022-11-17T04:59:26.374Z,29.45
2022-11-17T04:59:57.887Z,30.42
2022-11-17T05:00:29.454Z,30.77
2022-11-17T05:01:12.400Z,30.10
2022-11-17T05:01:44.381Z,29.80
2022-11-17T05:02:15.986Z,31.13
2022-11-17T05:02:47.577Z,31.33
2022-11-17T05:03:19.107Z,29.73
2022-11-17T05:04:01.696Z,31.05
2022-11-17T05:04:51.826Z,34.00
2022-11-17T05:05:23.363Z,32.15
2022-11-17T05:05:54.905Z,31.08
2022-11-17T05:06:33.614Z,31.73
2022-11-17T05:07:06.146Z,32.13
2022-11-17T05:07:37.806Z,32.88
2022-11-17T05:08:09.373Z,34.30
2022-11-17T05:08:41.450Z,33.63
2022-11-17T05:09:16.871Z,32.88
2022-11-17T05:09:48.399Z,29.85
2022-11-17T05:10:39.901Z,32.85
2022-11-17T05:11:32.426Z,31.90
2022-11-17T05:12:23.179Z,32.28
2022-11-17T05:13:12.975Z,33.50
2022-11-17T05:13:44.489Z,32.35
2022-11-17T05:14:18.768Z,34.75
2022-11-17T05:14:50.575Z,34.70
2022-11-17T05:15:42.133Z,31.08
2022-11-17T05:16:32.413Z,31.42
2022-11-17T05:17:11.359Z,30.63
2022-11-17T05:17:43.370Z,34.67
2022-11-17T05:18:14.882Z,34.05
2022-11-17T05:18:46.403Z,33.97
2022-11-17T05:19:22.062Z,31.20
2022-11-17T05:19:53.578Z,31.52
2022-11-17T05:20:25.167Z,34.78
2022-11-17T05:21:05.047Z,35.00
2022-11-17T05:21:36.677Z,34.92
2022-11-17T05:22:28.542Z,32.20
2022-11-17T05:23:18.542Z,35.38
2022-11-17T05:23:55.619Z,35.53
2022-11-17T05:24:27.528Z,32.63
2022-11-17T05:24:59.468Z,34.00
2022-11-17T05:25:30.998Z,36.53
2022-11-17T05:26:02.541Z,37.53
2022-11-17T05:26:36.720Z,37.42
2022-11-17T05:27:08.234Z,32.97
2022-11-17T05:27:39.747Z,38.13
2022-11-17T05:28:11.265Z,33.95
2022-11-17T05:28:43.034Z,35.80
2022-11-17T05:29:17.942Z,34.35
2022-11-17T05:29:49.676Z,34.65
2022-11-17T05:30:21.201Z,33.63
2022-11-17T05:30:52.726Z,33.17
2022-11-17T05:31:25.499Z,33.92
2022-11-17T05:31:57.046Z,36.67
2022-11-17T05:32:28.581Z,33.00
2022-11-17T05:33:00.098Z,36.35
2022-11-17T05:33:37.427Z,36.15
2022-11-17T05:34:12.408Z,34.80
2022-11-17T05:34:43.950Z,32.83
2022-11-17T05:35:15.474Z,33.05
2022-11-17T05:35:46.988Z,32.70
2022-11-17T05:36:19.670Z,32.85
2022-11-17T05:36:51.199Z,34.47
2022-11-17T05:37:22.821Z,33.83
2022-11-17T05:37:54.336Z,32.45
2022-11-17T05:38:25.883Z,35.50
2022-11-17T05:38:57.636Z,31.45
2022-11-17T05:39:29.150Z,30.05
2022-11-17T05:40:00.666Z,33.58
2022-11-17T05:40:32.177Z,32.28
2022-11-17T05:41:04.076Z,30.85
2022-11-17T05:41:37.241Z,31.48
2022-11-17T05:42:08.836Z,32.00
2022-11-17T05:42:40.399Z,31.92
2022-11-17T05:43:11.948Z,31.58
2022-11-17T05:43:44.089Z,34.05
2022-11-17T05:44:15.623Z,32.42
2022-11-17T05:44:48.575Z,36.22
2022-11-17T05:45:20.208Z,33.47
2022-11-17T05:45:51.850Z,33.45
2022-11-17T05:46:23.795Z,33.60
2022-11-17T05:46:55.389Z,33.72
2022-11-17T05:47:26.900Z,34.80
2022-11-17T05:47:58.445Z,34.90
2022-11-17T05:48:30.189Z,35.05
2022-11-17T05:49:01.792Z,31.65
2022-11-17T05:49:33.351Z,34.33
2022-11-17T05:50:05.187Z,32.13
2022-11-17T05:50:36.760Z,33.92
2022-11-17T05:51:08.329Z,32.85
2022-11-17T05:51:39.889Z,31.92
2022-11-17T05:52:11.421Z,30.27
2022-11-17T05:52:42.929Z,32.92
2022-11-17T05:53:14.516Z,30.85
2022-11-17T05:53:46.462Z,30.23
2022-11-17T05:54:18.015Z,32.63
2022-11-17T05:54:49.569Z,29.95
2022-11-17T05:55:21.149Z,30.52
2022-11-17T05:56:07.126Z,33.08
2022-11-17T05:56:52.541Z,33.28
2022-11-17T05:57:30.500Z,30.45
2022-11-17T05:58:10.885Z,29.27
2022-11-17T05:58:46.057Z,32.50
2022-11-17T05:59:32.329Z,29.77
2022-11-17T06:00:04.755Z,28.08
2022-11-17T06:00:39.653Z,28.70
2022-11-17T06:01:14.070Z,29.27
2022-11-17T06:02:23.785Z,27.35
2022-11-17T06:03:08.197Z,29.02
2022-11-17T06:03:47.420Z,27.25
2022-11-17T06:04:19.622Z,29.65
2022-11-17T06:04:51.853Z,30.42
2022-11-17T06:05:24.041Z,27.67
2022-11-17T06:05:57.489Z,30.02
2022-11-17T06:06:30.152Z,27.20
2022-11-17T06:07:02.594Z,28.75
2022-11-17T06:07:36.181Z,30.98
2022-11-17T06:08:07.781Z,31.35
2022-11-17T06:08:39.313Z,32.78
2022-11-17T06:09:11.474Z,29.23
2022-11-17T06:09:43.017Z,27.33
2022-11-17T06:10:14.614Z,26.20
2022-11-17T06:10:46.460Z,29.00
2022-11-17T06:11:19.355Z,28.65
2022-11-17T06:11:50.867Z,26.83
2022-11-17T06:12:22.405Z,29.55
2022-11-17T06:12:53.930Z,29.80
2022-11-17T06:13:28.965Z,29.75
2022-11-17T06:14:00.565Z,27.15
2022-11-17T06:14:32.269Z,28.77
2022-11-17T06:15:04.134Z,29.05
2022-11-17T06:15:35.841Z,30.15
2022-11-17T06:16:10.284Z,28.92
2022-11-17T06:16:46.336Z,28.90
2022-11-17T06:17:22.408Z,31.30
2022-11-17T06:18:00.374Z,28.92
2022-11-17T06:18:44.021Z,27.70
2022-11-17T06:19:20.609Z,27.05
2022-11-17T06:20:01.216Z,29.45
2022-11-17T06:20:37.613Z,29.35
2022-11-17T06:21:10.714Z,28.70
2022-11-17T06:22:09.964Z,30.35
2022-11-17T06:22:34.584Z,29.00
2022-11-17T06:23:08.058Z,30.88
2022-11-17T06:23:39.629Z,32.60
2022-11-17T06:24:11.261Z,28.73
2022-11-17T06:24:45.200Z,30.45
2022-11-17T06:25:19.208Z,30.00
2022-11-17T06:25:50.846Z,31.25
2022-11-17T06:26:22.574Z,29.38
2022-11-17T06:26:54.176Z,29.45
2022-11-17T06:27:26.401Z,31.50
2022-11-17T06:28:01.253Z,29.58
2022-11-17T06:28:35.159Z,30.85
2022-11-17T06:29:08.487Z,31.52
2022-11-17T06:29:44.278Z,29.70
2022-11-17T06:30:16.878Z,30.15
2022-11-17T06:30:49.500Z,29.27
2022-11-17T06:31:21.313Z,29.45
2022-11-17T06:31:53.652Z,31.92
2022-11-17T06:32:25.360Z,29.98
2022-11-17T06:32:58.654Z,31.60
2022-11-17T06:33:31.751Z,35.40
2022-11-17T06:34:04.960Z,30.10
2022-11-17T06:34:37.551Z,33.67
2022-11-17T06:35:11.508Z,31.90
2022-11-17T06:35:44.766Z,33.50
2022-11-17T06:36:16.467Z,31.90
2022-11-17T06:36:48.007Z,32.85
2022-11-17T06:37:20.305Z,30.38
2022-11-17T06:37:51.823Z,33.13
2022-11-17T06:38:23.339Z,35.40
2022-11-17T06:38:54.898Z,33.35
2022-11-17T06:39:26.585Z,34.53
2022-11-17T06:39:58.143Z,34.72
2022-11-17T06:40:29.916Z,33.90
2022-11-17T06:41:07.378Z,34.42
2022-11-17T06:41:42.032Z,33.30
2022-11-17T06:42:13.567Z,32.90
2022-11-17T06:43:03.623Z,33.53
2022-11-17T06:43:35.458Z,30.35
2022-11-17T06:44:07.238Z,33.50
2022-11-17T06:44:39.272Z,33.13
2022-11-17T06:45:11.921Z,35.72
2022-11-17T06:45:46.491Z,39.20
2022-11-17T06:46:19.069Z,34.40
2022-11-17T06:46:50.627Z,36.00
2022-11-17T06:47:22.150Z,32.67
2022-11-17T06:47:54.191Z,33.80
2022-11-17T06:48:27.169Z,33.95
2022-11-17T06:48:58.686Z,33.17
2022-11-17T06:49:30.275Z,32.38
2022-11-17T06:50:02.103Z,35.10
2022-11-17T06:50:34.876Z,31.27
2022-11-17T06:51:06.824Z,31.55
2022-11-17T06:51:43.761Z,34.20
2022-11-17T06:52:17.112Z,33.08
2022-11-17T06:52:48.679Z,35.35
2022-11-17T06:53:22.988Z,36.55
2022-11-17T06:53:54.666Z,32.63
2022-11-17T06:54:26.300Z,35.22
2022-11-17T06:54:57.852Z,37.88
2022-11-17T06:55:29.630Z,38.20
2022-11-17T06:56:08.550Z,35.75
2022-11-17T06:56:40.660Z,32.00
2022-11-17T06:57:12.254Z,36.22
2022-11-17T06:57:46.602Z,36.90
2022-11-17T06:58:22.042Z,34.83
2022-11-17T06:58:54.337Z,36.60
2022-11-17T06:59:25.967Z,37.40
2022-11-17T06:59:57.530Z,41.10
2022-11-17T07:00:30.448Z,38.58
2022-11-17T07:01:10.014Z,41.40
2022-11-17T07:01:41.683Z,37.90
2022-11-17T07:02:13.312Z,40.80
2022-11-17T07:02:44.991Z,39.78
2022-11-17T07:03:16.586Z,35.75
2022-11-17T07:03:48.172Z,35.83
2022-11-17T07:04:19.797Z,36.28
2022-11-17T07:04:51.452Z,37.65
2022-11-17T07:05:23.022Z,37.90
2022-11-17T07:05:54.654Z,30.77
2022-11-17T07:06:26.304Z,35.30
2022-11-17T07:06:57.943Z,36.80
2022-11-17T07:07:29.612Z,36.72
2022-11-17T07:08:04.026Z,34.78
2022-11-17T07:08:36.184Z,34.65
2022-11-17T07:09:08.154Z,38.28
2022-11-17T07:09:39.825Z,36.10
2022-11-17T07:10:11.491Z,34.80
2022-11-17T07:10:48.979Z,34.28
2022-11-17T07:11:20.990Z,37.13
2022-11-17T07:11:52.627Z,36.65
2022-11-17T07:12:24.255Z,34.92
2022-11-17T07:12:56.157Z,37.28
2022-11-17T07:13:27.716Z,35.63
2022-11-17T07:13:59.301Z,34.30
2022-11-17T07:14:31.389Z,34.50
2022-11-17T07:15:03.133Z,32.13
2022-11-17T07:15:34.746Z,35.47
2022-11-17T07:16:20.118Z,36.60
2022-11-17T07:16:54.723Z,36.45
2022-11-17T07:17:26.339Z,35.60
2022-11-17T07:17:58.616Z,36.83
2022-11-17T07:18:30.234Z,36.72
2022-11-17T07:19:03.825Z,35.65
2022-11-17T07:19:35.547Z,35.70
2022-11-17T07:20:07.747Z,34.17
2022-11-17T07:20:39.350Z,36.55
2022-11-17T07:21:13.839Z,32.88
2022-11-17T07:21:45.419Z,32.17
2022-11-17T07:22:17.047Z,34.70
2022-11-17T07:22:49.879Z,35.70
2022-11-17T07:23:22.298Z,32.78
2022-11-17T07:23:54.040Z,33.97
2022-11-17T07:24:25.675Z,31.88
2022-11-17T07:24:57.281Z,33.08
2022-11-17T07:25:28.851Z,31.27
2022-11-17T07:26:01.352Z,31.13
2022-11-17T07:26:32.983Z,37.92
2022-11-17T07:27:06.497Z,33.97
2022-11-17T07:27:38.799Z,36.05
2022-11-17T07:28:10.466Z,33.58
2022-11-17T07:28:42.059Z,35.05
2022-11-17T07:29:13.724Z,32.05
2022-11-17T07:29:45.354Z,35.10
2022-11-17T07:30:17.052Z,34.80
2022-11-17T07:30:48.685Z,33.00
2022-11-17T07:31:20.655Z,32.95
2022-11-17T07:31:52.328Z,33.45
2022-11-17T07:32:24.248Z,35.45
2022-11-17T07:32:57.613Z,33.50
2022-11-17T07:33:29.405Z,33.72
2022-11-17T07:34:00.979Z,34.83
2022-11-17T07:34:32.596Z,31.73
2022-11-17T07:35:05.978Z,31.40
2022-11-17T07:35:37.585Z,33.58
2022-11-17T07:36:11.736Z,29.73
2022-11-17T07:36:43.340Z,34.45
2022-11-17T07:37:14.913Z,32.08
2022-11-17T07:37:46.590Z,33.03
2022-11-17T07:38:18.176Z,33.40
2022-11-17T07:38:49.781Z,33.53
2022-11-17T07:39:22.152Z,33.45
2022-11-17T07:39:53.857Z,29.90
2022-11-17T07:40:25.758Z,32.20